sensor_id;sensor_type;location;lat;lon;timestamp;P1;durP1;ratioP1;P2;durP2;ratioP2
17965;SDS011;9108;53.204;10.424;2023-02-11T00:02:37;108.00;;;42.40;;
17965;SDS011;9108;53.204;10.424;2023-02-11T00:08:44;107.47;;;42.75;;
17965;SDS011;9108;53.204;10.424;2023-02-11T00:12:04;113.75;;;44.65;;
17965;SDS011;9108;53.204;10.424;2023-02-11T00:14:46;112.53;;;44.63;;
17965;SDS011;9108;53.204;10.424;2023-02-11T00:20:29;119.77;;;46.10;;
17965;SDS011;9108;53.204;10.424;2023-02-11T00:32:44;123.03;;;45.78;;
17965;SDS011;9108;53.204;10.424;2023-02-11T00:35:38;115.25;;;45.88;;
17965;SDS011;9108;53.204;10.424;2023-02-11T01:15:55;116.63;;;46.45;;
17965;SDS011;9108;53.204;10.424;2023-02-11T01:25:02;122.57;;;47.22;;
17965;SDS011;9108;53.204;10.424;2023-02-11T01:31:02;128.80;;;48.40;;
17965;SDS011;9108;53.204;10.424;2023-02-11T01:33:29;129.53;;;47.60;;
17965;SDS011;9108;53.204;10.424;2023-02-11T01:35:58;124.00;;;47.20;;
17965;SDS011;9108;53.204;10.424;2023-02-11T01:38:25;124.05;;;48.72;;
17965;SDS011;9108;53.204;10.424;2023-02-11T01:40:53;125.40;;;47.33;;
17965;SDS011;9108;53.204;10.424;2023-02-11T01:43:21;125.03;;;47.65;;
17965;SDS011;9108;53.204;10.424;2023-02-11T01:45:59;128.73;;;47.85;;
17965;SDS011;9108;53.204;10.424;2023-02-11T01:48:28;124.65;;;47.30;;
17965;SDS011;9108;53.204;10.424;2023-02-11T01:50:58;124.25;;;48.28;;
17965;SDS011;9108;53.204;10.424;2023-02-11T01:53:27;130.43;;;48.50;;
17965;SDS011;9108;53.204;10.424;2023-02-11T01:56:13;126.30;;;47.50;;
17965;SDS011;9108;53.204;10.424;2023-02-11T01:59:00;126.32;;;47.08;;
17965;SDS011;9108;53.204;10.424;2023-02-11T02:01:28;130.50;;;49.60;;
17965;SDS011;9108;53.204;10.424;2023-02-11T02:04:00;134.63;;;48.65;;
17965;SDS011;9108;53.204;10.424;2023-02-11T02:06:29;129.48;;;48.90;;
17965;SDS011;9108;53.204;10.424;2023-02-11T02:09:00;131.75;;;48.85;;
17965;SDS011;9108;53.204;10.424;2023-02-11T02:11:28;129.63;;;47.00;;
17965;SDS011;9108;53.204;10.424;2023-02-11T02:13:55;127.90;;;48.35;;
17965;SDS011;9108;53.204;10.424;2023-02-11T02:16:23;124.55;;;47.28;;
17965;SDS011;9108;53.204;10.424;2023-02-11T02:18:55;125.13;;;48.38;;
17965;SDS011;9108;53.204;10.424;2023-02-11T02:24:30;125.60;;;46.65;;
17965;SDS011;9108;53.204;10.424;2023-02-11T02:32:43;137.50;;;49.80;;
17965;SDS011;9108;53.204;10.424;2023-02-11T02:35:14;133.38;;;48.78;;
17965;SDS011;9108;53.204;10.424;2023-02-11T02:37:48;138.30;;;49.75;;
17965;SDS011;9108;53.204;10.424;2023-02-11T02:40:18;135.60;;;49.03;;
17965;SDS011;9108;53.204;10.424;2023-02-11T02:42:46;138.98;;;49.60;;
17965;SDS011;9108;53.204;10.424;2023-02-11T02:45:13;136.20;;;49.40;;
17965;SDS011;9108;53.204;10.424;2023-02-11T02:47:41;130.10;;;48.75;;
17965;SDS011;9108;53.204;10.424;2023-02-11T02:50:09;138.60;;;49.58;;
17965;SDS011;9108;53.204;10.424;2023-02-11T02:52:40;134.07;;;47.47;;
17965;SDS011;9108;53.204;10.424;2023-02-11T02:55:11;134.73;;;50.47;;
17965;SDS011;9108;53.204;10.424;2023-02-11T02:57:44;138.65;;;49.53;;
17965;SDS011;9108;53.204;10.424;2023-02-11T03:00:15;133.00;;;47.80;;
17965;SDS011;9108;53.204;10.424;2023-02-11T03:02:47;132.13;;;48.97;;
17965;SDS011;9108;53.204;10.424;2023-02-11T03:05:19;140.07;;;48.88;;
17965;SDS011;9108;53.204;10.424;2023-02-11T03:07:49;138.02;;;49.50;;
17965;SDS011;9108;53.204;10.424;2023-02-11T03:10:18;138.70;;;47.97;;
17965;SDS011;9108;53.204;10.424;2023-02-11T03:12:47;145.75;;;49.17;;
17965;SDS011;9108;53.204;10.424;2023-02-11T03:15:14;141.15;;;49.55;;
17965;SDS011;9108;53.204;10.424;2023-02-11T03:17:43;141.63;;;49.90;;
17965;SDS011;9108;53.204;10.424;2023-02-11T03:20:12;132.68;;;47.03;;
17965;SDS011;9108;53.204;10.424;2023-02-11T03:22:43;131.73;;;48.35;;
17965;SDS011;9108;53.204;10.424;2023-02-11T03:25:11;136.55;;;49.25;;
17965;SDS011;9108;53.204;10.424;2023-02-11T03:27:40;135.43;;;48.20;;
17965;SDS011;9108;53.204;10.424;2023-02-11T03:30:10;129.55;;;48.15;;
17965;SDS011;9108;53.204;10.424;2023-02-11T03:32:39;135.05;;;48.55;;
17965;SDS011;9108;53.204;10.424;2023-02-11T03:35:08;131.63;;;48.30;;
17965;SDS011;9108;53.204;10.424;2023-02-11T03:37:38;141.80;;;48.70;;
17965;SDS011;9108;53.204;10.424;2023-02-11T03:40:09;140.60;;;48.92;;
17965;SDS011;9108;53.204;10.424;2023-02-11T03:42:38;136.63;;;48.90;;
17965;SDS011;9108;53.204;10.424;2023-02-11T03:45:07;127.05;;;47.17;;
17965;SDS011;9108;53.204;10.424;2023-02-11T03:47:35;134.80;;;48.15;;
17965;SDS011;9108;53.204;10.424;2023-02-11T03:50:05;133.75;;;47.67;;
17965;SDS011;9108;53.204;10.424;2023-02-11T03:52:33;124.30;;;45.92;;
17965;SDS011;9108;53.204;10.424;2023-02-11T03:55:02;125.57;;;45.60;;
17965;SDS011;9108;53.204;10.424;2023-02-11T03:57:31;119.35;;;45.17;;
17965;SDS011;9108;53.204;10.424;2023-02-11T03:59:59;118.43;;;45.22;;
17965;SDS011;9108;53.204;10.424;2023-02-11T04:02:27;127.85;;;45.33;;
17965;SDS011;9108;53.204;10.424;2023-02-11T04:04:56;113.57;;;43.40;;
17965;SDS011;9108;53.204;10.424;2023-02-11T04:07:23;111.45;;;42.58;;
17965;SDS011;9108;53.204;10.424;2023-02-11T04:09:51;111.68;;;42.22;;
17965;SDS011;9108;53.204;10.424;2023-02-11T04:12:18;106.07;;;41.35;;
17965;SDS011;9108;53.204;10.424;2023-02-11T04:14:47;105.60;;;41.60;;
17965;SDS011;9108;53.204;10.424;2023-02-11T04:17:14;104.70;;;39.65;;
17965;SDS011;9108;53.204;10.424;2023-02-11T04:19:41;103.65;;;39.50;;
17965;SDS011;9108;53.204;10.424;2023-02-11T04:22:08;96.10;;;39.17;;
17965;SDS011;9108;53.204;10.424;2023-02-11T04:24:35;99.75;;;38.95;;
17965;SDS011;9108;53.204;10.424;2023-02-11T04:27:02;97.50;;;38.80;;
17965;SDS011;9108;53.204;10.424;2023-02-11T04:29:29;100.57;;;37.83;;
17965;SDS011;9108;53.204;10.424;2023-02-11T04:31:58;93.18;;;37.60;;
17965;SDS011;9108;53.204;10.424;2023-02-11T04:34:25;88.27;;;37.83;;
17965;SDS011;9108;53.204;10.424;2023-02-11T04:36:52;95.63;;;38.30;;
17965;SDS011;9108;53.204;10.424;2023-02-11T04:39:19;94.13;;;36.63;;
17965;SDS011;9108;53.204;10.424;2023-02-11T04:41:46;92.07;;;37.53;;
17965;SDS011;9108;53.204;10.424;2023-02-11T04:44:14;98.37;;;37.13;;
17965;SDS011;9108;53.204;10.424;2023-02-11T04:46:41;91.38;;;36.50;;
17965;SDS011;9108;53.204;10.424;2023-02-11T04:49:10;93.10;;;36.58;;
17965;SDS011;9108;53.204;10.424;2023-02-11T04:51:38;93.13;;;36.42;;
17965;SDS011;9108;53.204;10.424;2023-02-11T04:54:05;94.50;;;36.10;;
17965;SDS011;9108;53.204;10.424;2023-02-11T04:56:33;90.53;;;35.45;;
17965;SDS011;9108;53.204;10.424;2023-02-11T04:59:01;88.07;;;34.83;;
17965;SDS011;9108;53.204;10.424;2023-02-11T05:01:28;82.63;;;33.53;;
17965;SDS011;9108;53.204;10.424;2023-02-11T05:03:55;80.28;;;33.88;;
17965;SDS011;9108;53.204;10.424;2023-02-11T05:06:24;85.80;;;34.25;;
17965;SDS011;9108;53.204;10.424;2023-02-11T05:08:51;86.10;;;34.63;;
17965;SDS011;9108;53.204;10.424;2023-02-11T05:11:19;85.28;;;34.13;;
17965;SDS011;9108;53.204;10.424;2023-02-11T05:13:47;85.97;;;34.83;;
17965;SDS011;9108;53.204;10.424;2023-02-11T05:16:14;91.38;;;35.08;;
17965;SDS011;9108;53.204;10.424;2023-02-11T05:18:42;87.90;;;34.20;;
17965;SDS011;9108;53.204;10.424;2023-02-11T05:21:10;84.43;;;34.27;;
17965;SDS011;9108;53.204;10.424;2023-02-11T05:23:39;85.80;;;34.33;;
17965;SDS011;9108;53.204;10.424;2023-02-11T05:26:06;80.32;;;33.95;;
17965;SDS011;9108;53.204;10.424;2023-02-11T05:28:33;82.32;;;33.13;;
17965;SDS011;9108;53.204;10.424;2023-02-11T05:31:00;79.68;;;33.58;;
17965;SDS011;9108;53.204;10.424;2023-02-11T05:33:28;84.57;;;33.95;;
17965;SDS011;9108;53.204;10.424;2023-02-11T05:35:57;81.38;;;33.63;;
17965;SDS011;9108;53.204;10.424;2023-02-11T05:38:24;84.18;;;33.63;;
17965;SDS011;9108;53.204;10.424;2023-02-11T05:40:52;74.80;;;32.28;;
17965;SDS011;9108;53.204;10.424;2023-02-11T05:43:20;78.30;;;33.10;;
17965;SDS011;9108;53.204;10.424;2023-02-11T05:45:47;79.72;;;32.13;;
17965;SDS011;9108;53.204;10.424;2023-02-11T05:48:14;76.77;;;31.30;;
17965;SDS011;9108;53.204;10.424;2023-02-11T05:50:41;76.10;;;31.60;;
17965;SDS011;9108;53.204;10.424;2023-02-11T05:53:09;74.32;;;31.42;;
17965;SDS011;9108;53.204;10.424;2023-02-11T05:55:36;80.55;;;31.42;;
17965;SDS011;9108;53.204;10.424;2023-02-11T05:58:05;78.47;;;31.65;;
17965;SDS011;9108;53.204;10.424;2023-02-11T06:00:32;74.25;;;30.48;;
17965;SDS011;9108;53.204;10.424;2023-02-11T06:02:59;71.53;;;29.02;;
17965;SDS011;9108;53.204;10.424;2023-02-11T06:05:28;70.93;;;29.40;;
17965;SDS011;9108;53.204;10.424;2023-02-11T06:07:55;73.13;;;29.30;;
17965;SDS011;9108;53.204;10.424;2023-02-11T06:10:22;69.80;;;28.00;;
17965;SDS011;9108;53.204;10.424;2023-02-11T06:12:49;74.23;;;29.80;;
17965;SDS011;9108;53.204;10.424;2023-02-11T06:15:18;73.63;;;28.83;;
17965;SDS011;9108;53.204;10.424;2023-02-11T06:17:45;66.20;;;28.05;;
17965;SDS011;9108;53.204;10.424;2023-02-11T06:20:12;72.88;;;27.92;;
17965;SDS011;9108;53.204;10.424;2023-02-11T06:22:39;68.18;;;27.15;;
17965;SDS011;9108;53.204;10.424;2023-02-11T06:25:06;69.22;;;28.27;;
17965;SDS011;9108;53.204;10.424;2023-02-11T06:27:35;68.40;;;27.20;;
17965;SDS011;9108;53.204;10.424;2023-02-11T06:30:02;66.70;;;26.98;;
17965;SDS011;9108;53.204;10.424;2023-02-11T06:32:30;59.00;;;26.58;;
17965;SDS011;9108;53.204;10.424;2023-02-11T06:34:57;64.90;;;26.47;;
17965;SDS011;9108;53.204;10.424;2023-02-11T06:37:25;64.80;;;27.23;;
17965;SDS011;9108;53.204;10.424;2023-02-11T06:39:52;59.75;;;26.13;;
17965;SDS011;9108;53.204;10.424;2023-02-11T06:42:19;62.90;;;26.95;;
17965;SDS011;9108;53.204;10.424;2023-02-11T06:44:46;63.42;;;26.58;;
17965;SDS011;9108;53.204;10.424;2023-02-11T06:47:13;65.07;;;26.55;;
17965;SDS011;9108;53.204;10.424;2023-02-11T06:49:44;59.65;;;26.15;;
17965;SDS011;9108;53.204;10.424;2023-02-11T06:52:11;64.75;;;27.38;;
17965;SDS011;9108;53.204;10.424;2023-02-11T06:54:38;70.20;;;27.48;;
17965;SDS011;9108;53.204;10.424;2023-02-11T06:57:05;65.63;;;26.42;;
17965;SDS011;9108;53.204;10.424;2023-02-11T06:59:32;64.85;;;26.10;;
17965;SDS011;9108;53.204;10.424;2023-02-11T07:01:59;64.88;;;27.00;;
17965;SDS011;9108;53.204;10.424;2023-02-11T07:04:26;62.47;;;26.33;;
17965;SDS011;9108;53.204;10.424;2023-02-11T07:06:55;65.03;;;26.88;;
17965;SDS011;9108;53.204;10.424;2023-02-11T07:09:22;64.97;;;26.08;;
17965;SDS011;9108;53.204;10.424;2023-02-11T07:11:49;61.10;;;26.85;;
17965;SDS011;9108;53.204;10.424;2023-02-11T07:14:16;61.72;;;27.13;;
17965;SDS011;9108;53.204;10.424;2023-02-11T07:16:43;67.22;;;26.67;;
17965;SDS011;9108;53.204;10.424;2023-02-11T07:19:10;62.05;;;24.88;;
17965;SDS011;9108;53.204;10.424;2023-02-11T07:21:38;64.38;;;25.60;;
17965;SDS011;9108;53.204;10.424;2023-02-11T07:24:06;60.83;;;25.42;;
17965;SDS011;9108;53.204;10.424;2023-02-11T07:26:34;59.92;;;25.73;;
17965;SDS011;9108;53.204;10.424;2023-02-11T07:29:01;61.50;;;26.10;;
17965;SDS011;9108;53.204;10.424;2023-02-11T07:31:29;62.63;;;26.50;;
17965;SDS011;9108;53.204;10.424;2023-02-11T07:33:57;62.83;;;25.40;;
17965;SDS011;9108;53.204;10.424;2023-02-11T07:36:25;59.63;;;26.55;;
17965;SDS011;9108;53.204;10.424;2023-02-11T07:38:54;62.50;;;25.90;;
17965;SDS011;9108;53.204;10.424;2023-02-11T07:41:23;59.30;;;25.20;;
17965;SDS011;9108;53.204;10.424;2023-02-11T07:43:50;59.97;;;24.85;;
17965;SDS011;9108;53.204;10.424;2023-02-11T07:46:18;61.30;;;25.58;;
17965;SDS011;9108;53.204;10.424;2023-02-11T07:48:45;58.00;;;25.75;;
17965;SDS011;9108;53.204;10.424;2023-02-11T07:51:13;61.40;;;25.15;;
17965;SDS011;9108;53.204;10.424;2023-02-11T07:53:41;61.88;;;25.95;;
17965;SDS011;9108;53.204;10.424;2023-02-11T07:56:08;63.05;;;26.45;;
17965;SDS011;9108;53.204;10.424;2023-02-11T07:58:37;64.70;;;26.23;;
17965;SDS011;9108;53.204;10.424;2023-02-11T08:01:07;60.85;;;25.70;;
17965;SDS011;9108;53.204;10.424;2023-02-11T08:03:34;58.60;;;25.42;;
17965;SDS011;9108;53.204;10.424;2023-02-11T08:06:02;62.00;;;25.50;;
17965;SDS011;9108;53.204;10.424;2023-02-11T08:08:29;62.97;;;26.45;;
17965;SDS011;9108;53.204;10.424;2023-02-11T08:10:56;63.63;;;26.95;;
17965;SDS011;9108;53.204;10.424;2023-02-11T08:13:24;64.38;;;26.52;;
17965;SDS011;9108;53.204;10.424;2023-02-11T08:15:53;70.07;;;27.38;;
17965;SDS011;9108;53.204;10.424;2023-02-11T08:18:23;62.72;;;26.42;;
17965;SDS011;9108;53.204;10.424;2023-02-11T08:20:50;63.03;;;26.55;;
17965;SDS011;9108;53.204;10.424;2023-02-11T08:23:17;66.57;;;26.88;;
17965;SDS011;9108;53.204;10.424;2023-02-11T08:25:44;65.18;;;26.35;;
17965;SDS011;9108;53.204;10.424;2023-02-11T08:28:11;64.90;;;26.65;;
17965;SDS011;9108;53.204;10.424;2023-02-11T08:30:38;63.35;;;27.70;;
17965;SDS011;9108;53.204;10.424;2023-02-11T08:33:07;63.83;;;26.25;;
17965;SDS011;9108;53.204;10.424;2023-02-11T08:35:34;63.88;;;25.55;;
17965;SDS011;9108;53.204;10.424;2023-02-11T08:38:03;58.42;;;25.55;;
17965;SDS011;9108;53.204;10.424;2023-02-11T08:40:30;60.55;;;25.02;;
17965;SDS011;9108;53.204;10.424;2023-02-11T08:42:58;61.05;;;25.75;;
17965;SDS011;9108;53.204;10.424;2023-02-11T08:45:25;55.35;;;23.80;;
17965;SDS011;9108;53.204;10.424;2023-02-11T08:47:52;55.80;;;24.25;;
17965;SDS011;9108;53.204;10.424;2023-02-11T08:50:21;52.03;;;22.77;;
17965;SDS011;9108;53.204;10.424;2023-02-11T08:52:48;52.40;;;22.55;;
17965;SDS011;9108;53.204;10.424;2023-02-11T08:55:16;51.00;;;22.10;;
17965;SDS011;9108;53.204;10.424;2023-02-11T08:57:43;46.55;;;21.05;;
17965;SDS011;9108;53.204;10.424;2023-02-11T09:00:11;43.75;;;19.98;;
17965;SDS011;9108;53.204;10.424;2023-02-11T09:02:38;48.67;;;20.52;;
17965;SDS011;9108;53.204;10.424;2023-02-11T09:05:06;42.03;;;19.98;;
17965;SDS011;9108;53.204;10.424;2023-02-11T09:07:34;42.22;;;19.48;;
17965;SDS011;9108;53.204;10.424;2023-02-11T09:10:01;41.35;;;18.63;;
17965;SDS011;9108;53.204;10.424;2023-02-11T09:12:30;39.75;;;17.65;;
17965;SDS011;9108;53.204;10.424;2023-02-11T09:14:57;39.03;;;16.80;;
17965;SDS011;9108;53.204;10.424;2023-02-11T09:17:24;36.75;;;17.02;;
17965;SDS011;9108;53.204;10.424;2023-02-11T09:19:51;37.28;;;17.38;;
17965;SDS011;9108;53.204;10.424;2023-02-11T09:22:18;40.33;;;16.88;;
17965;SDS011;9108;53.204;10.424;2023-02-11T09:24:47;31.05;;;15.27;;
17965;SDS011;9108;53.204;10.424;2023-02-11T09:27:14;32.53;;;15.07;;
17965;SDS011;9108;53.204;10.424;2023-02-11T09:29:41;27.63;;;13.77;;
17965;SDS011;9108;53.204;10.424;2023-02-11T09:32:08;30.33;;;14.07;;
17965;SDS011;9108;53.204;10.424;2023-02-11T09:34:35;30.60;;;13.75;;
17965;SDS011;9108;53.204;10.424;2023-02-11T09:37:03;27.67;;;13.98;;
17965;SDS011;9108;53.204;10.424;2023-02-11T09:39:30;28.42;;;13.50;;
17965;SDS011;9108;53.204;10.424;2023-02-11T09:42:01;29.65;;;13.57;;
17965;SDS011;9108;53.204;10.424;2023-02-11T09:44:30;28.60;;;13.00;;
17965;SDS011;9108;53.204;10.424;2023-02-11T09:46:59;33.28;;;14.02;;
17965;SDS011;9108;53.204;10.424;2023-02-11T09:49:29;27.50;;;13.40;;
17965;SDS011;9108;53.204;10.424;2023-02-11T09:52:00;27.88;;;13.40;;
17965;SDS011;9108;53.204;10.424;2023-02-11T09:54:30;25.33;;;13.45;;
17965;SDS011;9108;53.204;10.424;2023-02-11T09:57:01;26.98;;;13.02;;
17965;SDS011;9108;53.204;10.424;2023-02-11T09:59:30;27.23;;;13.25;;
17965;SDS011;9108;53.204;10.424;2023-02-11T10:01:58;26.35;;;12.80;;
17965;SDS011;9108;53.204;10.424;2023-02-11T10:04:36;26.95;;;12.65;;
17965;SDS011;9108;53.204;10.424;2023-02-11T10:07:11;26.23;;;12.80;;
17965;SDS011;9108;53.204;10.424;2023-02-11T10:09:51;27.23;;;12.48;;
17965;SDS011;9108;53.204;10.424;2023-02-11T10:12:28;27.88;;;12.32;;
17965;SDS011;9108;53.204;10.424;2023-02-11T10:15:03;26.60;;;12.55;;
17965;SDS011;9108;53.204;10.424;2023-02-11T10:17:34;26.42;;;13.05;;
17965;SDS011;9108;53.204;10.424;2023-02-11T10:20:12;28.33;;;12.57;;
17965;SDS011;9108;53.204;10.424;2023-02-11T10:22:42;24.67;;;11.30;;
17965;SDS011;9108;53.204;10.424;2023-02-11T10:25:16;24.27;;;12.07;;
17965;SDS011;9108;53.204;10.424;2023-02-11T10:27:45;24.40;;;11.27;;
17965;SDS011;9108;53.204;10.424;2023-02-11T10:30:15;24.52;;;11.52;;
17965;SDS011;9108;53.204;10.424;2023-02-11T10:32:45;26.95;;;11.73;;
17965;SDS011;9108;53.204;10.424;2023-02-11T10:35:15;23.90;;;10.40;;
17965;SDS011;9108;53.204;10.424;2023-02-11T10:37:43;22.80;;;10.75;;
17965;SDS011;9108;53.204;10.424;2023-02-11T10:40:12;24.10;;;11.10;;
17965;SDS011;9108;53.204;10.424;2023-02-11T10:42:39;29.95;;;12.82;;
17965;SDS011;9108;53.204;10.424;2023-02-11T10:45:14;24.20;;;11.38;;
17965;SDS011;9108;53.204;10.424;2023-02-11T10:47:42;22.35;;;10.80;;
17965;SDS011;9108;53.204;10.424;2023-02-11T10:50:17;24.45;;;11.27;;
17965;SDS011;9108;53.204;10.424;2023-02-11T10:52:45;22.90;;;10.43;;
17965;SDS011;9108;53.204;10.424;2023-02-11T10:55:14;19.87;;;10.37;;
17965;SDS011;9108;53.204;10.424;2023-02-11T10:57:42;18.60;;;9.50;;
17965;SDS011;9108;53.204;10.424;2023-02-11T11:03:05;20.67;;;9.63;;
17965;SDS011;9108;53.204;10.424;2023-02-11T11:05:34;21.08;;;10.20;;
17965;SDS011;9108;53.204;10.424;2023-02-11T11:08:03;20.73;;;10.10;;
17965;SDS011;9108;53.204;10.424;2023-02-11T11:10:33;19.05;;;10.02;;
17965;SDS011;9108;53.204;10.424;2023-02-11T11:13:01;20.93;;;9.87;;
17965;SDS011;9108;53.204;10.424;2023-02-11T11:15:29;21.25;;;10.35;;
17965;SDS011;9108;53.204;10.424;2023-02-11T11:18:12;20.40;;;9.60;;
17965;SDS011;9108;53.204;10.424;2023-02-11T11:20:40;18.65;;;8.82;;
17965;SDS011;9108;53.204;10.424;2023-02-11T11:23:15;20.33;;;9.32;;
17965;SDS011;9108;53.204;10.424;2023-02-11T11:25:43;19.27;;;9.35;;
17965;SDS011;9108;53.204;10.424;2023-02-11T11:28:19;20.33;;;9.27;;
17965;SDS011;9108;53.204;10.424;2023-02-11T11:30:46;21.23;;;9.25;;
17965;SDS011;9108;53.204;10.424;2023-02-11T11:33:18;20.98;;;9.52;;
17965;SDS011;9108;53.204;10.424;2023-02-11T11:35:54;18.70;;;8.90;;
17965;SDS011;9108;53.204;10.424;2023-02-11T11:38:21;20.08;;;9.43;;
17965;SDS011;9108;53.204;10.424;2023-02-11T11:40:49;21.02;;;9.70;;
17965;SDS011;9108;53.204;10.424;2023-02-11T11:43:36;21.93;;;10.00;;
17965;SDS011;9108;53.204;10.424;2023-02-11T11:46:06;21.67;;;9.73;;
17965;SDS011;9108;53.204;10.424;2023-02-11T11:48:37;23.27;;;10.43;;
17965;SDS011;9108;53.204;10.424;2023-02-11T11:51:07;23.57;;;10.80;;
17965;SDS011;9108;53.204;10.424;2023-02-11T11:53:36;23.33;;;10.53;;
17965;SDS011;9108;53.204;10.424;2023-02-11T11:56:05;27.15;;;11.20;;
17965;SDS011;9108;53.204;10.424;2023-02-11T11:58:32;22.48;;;10.38;;
17965;SDS011;9108;53.204;10.424;2023-02-11T12:01:02;25.30;;;10.75;;
17965;SDS011;9108;53.204;10.424;2023-02-11T12:03:50;22.10;;;10.10;;
17965;SDS011;9108;53.204;10.424;2023-02-11T12:06:23;24.80;;;10.98;;
17965;SDS011;9108;53.204;10.424;2023-02-11T12:08:54;24.77;;;10.60;;
17965;SDS011;9108;53.204;10.424;2023-02-11T12:11:29;25.15;;;11.27;;
17965;SDS011;9108;53.204;10.424;2023-02-11T12:14:02;24.03;;;10.70;;
17965;SDS011;9108;53.204;10.424;2023-02-11T12:16:33;22.42;;;10.15;;
17965;SDS011;9108;53.204;10.424;2023-02-11T12:19:09;23.58;;;10.43;;
17965;SDS011;9108;53.204;10.424;2023-02-11T12:21:45;24.77;;;10.30;;
17965;SDS011;9108;53.204;10.424;2023-02-11T12:24:21;23.60;;;10.35;;
17965;SDS011;9108;53.204;10.424;2023-02-11T12:26:55;23.83;;;10.68;;
17965;SDS011;9108;53.204;10.424;2023-02-11T12:29:26;26.77;;;11.40;;
17965;SDS011;9108;53.204;10.424;2023-02-11T12:32:00;31.05;;;12.40;;
17965;SDS011;9108;53.204;10.424;2023-02-11T12:34:41;28.73;;;12.70;;
17965;SDS011;9108;53.204;10.424;2023-02-11T12:37:15;31.97;;;14.23;;
17965;SDS011;9108;53.204;10.424;2023-02-11T12:39:48;38.80;;;13.35;;
17965;SDS011;9108;53.204;10.424;2023-02-11T12:42:23;41.60;;;14.70;;
17965;SDS011;9108;53.204;10.424;2023-02-11T12:45:19;33.10;;;13.00;;
17965;SDS011;9108;53.204;10.424;2023-02-11T12:47:51;30.35;;;12.60;;
17965;SDS011;9108;53.204;10.424;2023-02-11T12:50:24;28.50;;;12.60;;
17965;SDS011;9108;53.204;10.424;2023-02-11T12:53:01;30.65;;;12.68;;
17965;SDS011;9108;53.204;10.424;2023-02-11T12:55:33;28.40;;;11.82;;
17965;SDS011;9108;53.204;10.424;2023-02-11T12:58:01;34.13;;;12.52;;
17965;SDS011;9108;53.204;10.424;2023-02-11T13:00:34;33.60;;;12.90;;
17965;SDS011;9108;53.204;10.424;2023-02-11T13:03:05;29.65;;;12.98;;
17965;SDS011;9108;53.204;10.424;2023-02-11T13:05:36;28.10;;;12.20;;
17965;SDS011;9108;53.204;10.424;2023-02-11T13:08:04;33.75;;;12.27;;
17965;SDS011;9108;53.204;10.424;2023-02-11T13:10:35;28.73;;;11.57;;
17965;SDS011;9108;53.204;10.424;2023-02-11T13:13:04;30.07;;;12.10;;
17965;SDS011;9108;53.204;10.424;2023-02-11T13:15:42;36.75;;;12.55;;
17965;SDS011;9108;53.204;10.424;2023-02-11T13:18:13;29.95;;;11.23;;
17965;SDS011;9108;53.204;10.424;2023-02-11T13:20:44;34.67;;;12.02;;
17965;SDS011;9108;53.204;10.424;2023-02-11T13:23:18;25.77;;;11.15;;
17965;SDS011;9108;53.204;10.424;2023-02-11T13:25:49;25.38;;;10.90;;
17965;SDS011;9108;53.204;10.424;2023-02-11T13:28:22;22.83;;;10.27;;
17965;SDS011;9108;53.204;10.424;2023-02-11T13:30:51;24.88;;;10.38;;
17965;SDS011;9108;53.204;10.424;2023-02-11T13:33:30;22.67;;;10.00;;
17965;SDS011;9108;53.204;10.424;2023-02-11T13:36:12;24.65;;;9.60;;
17965;SDS011;9108;53.204;10.424;2023-02-11T13:38:40;26.10;;;9.67;;
17965;SDS011;9108;53.204;10.424;2023-02-11T13:41:17;20.33;;;9.00;;
17965;SDS011;9108;53.204;10.424;2023-02-11T13:43:55;18.75;;;9.27;;
17965;SDS011;9108;53.204;10.424;2023-02-11T13:46:23;18.60;;;8.60;;
17965;SDS011;9108;53.204;10.424;2023-02-11T13:48:51;20.85;;;8.88;;
17965;SDS011;9108;53.204;10.424;2023-02-11T13:51:33;21.95;;;8.70;;
17965;SDS011;9108;53.204;10.424;2023-02-11T13:54:01;16.77;;;7.93;;
17965;SDS011;9108;53.204;10.424;2023-02-11T13:56:30;17.00;;;7.65;;
17965;SDS011;9108;53.204;10.424;2023-02-11T13:58:58;16.20;;;7.20;;
17965;SDS011;9108;53.204;10.424;2023-02-11T14:01:39;15.90;;;7.13;;
17965;SDS011;9108;53.204;10.424;2023-02-11T14:04:20;15.82;;;7.13;;
17965;SDS011;9108;53.204;10.424;2023-02-11T14:07:26;14.77;;;6.55;;
17965;SDS011;9108;53.204;10.424;2023-02-11T14:13:16;14.23;;;6.15;;
17965;SDS011;9108;53.204;10.424;2023-02-11T14:15:45;12.05;;;5.97;;
17965;SDS011;9108;53.204;10.424;2023-02-11T14:20:59;12.55;;;5.60;;
17965;SDS011;9108;53.204;10.424;2023-02-11T14:23:38;13.13;;;6.05;;
17965;SDS011;9108;53.204;10.424;2023-02-11T14:26:13;11.07;;;5.75;;
17965;SDS011;9108;53.204;10.424;2023-02-11T14:28:46;12.95;;;5.60;;
17965;SDS011;9108;53.204;10.424;2023-02-11T14:31:15;16.35;;;5.78;;
17965;SDS011;9108;53.204;10.424;2023-02-11T14:33:50;13.05;;;5.78;;
17965;SDS011;9108;53.204;10.424;2023-02-11T14:39:13;14.60;;;6.05;;
17965;SDS011;9108;53.204;10.424;2023-02-11T14:41:43;13.07;;;5.88;;
17965;SDS011;9108;53.204;10.424;2023-02-11T14:44:12;13.23;;;5.57;;
17965;SDS011;9108;53.204;10.424;2023-02-11T14:46:42;13.43;;;5.90;;
17965;SDS011;9108;53.204;10.424;2023-02-11T14:49:11;13.13;;;5.80;;
17965;SDS011;9108;53.204;10.424;2023-02-11T14:51:39;13.82;;;6.10;;
17965;SDS011;9108;53.204;10.424;2023-02-11T14:54:08;12.90;;;5.88;;
17965;SDS011;9108;53.204;10.424;2023-02-11T14:56:40;13.82;;;5.93;;
17965;SDS011;9108;53.204;10.424;2023-02-11T14:59:12;12.93;;;5.80;;
17965;SDS011;9108;53.204;10.424;2023-02-11T15:01:41;13.02;;;6.00;;
17965;SDS011;9108;53.204;10.424;2023-02-11T15:04:21;14.70;;;6.25;;
17965;SDS011;9108;53.204;10.424;2023-02-11T15:06:48;14.07;;;6.47;;
17965;SDS011;9108;53.204;10.424;2023-02-11T15:09:16;14.25;;;6.55;;
17965;SDS011;9108;53.204;10.424;2023-02-11T15:11:49;16.38;;;6.65;;
17965;SDS011;9108;53.204;10.424;2023-02-11T15:14:17;16.00;;;6.38;;
17965;SDS011;9108;53.204;10.424;2023-02-11T15:16:45;16.65;;;6.75;;
17965;SDS011;9108;53.204;10.424;2023-02-11T15:19:18;15.52;;;7.30;;
17965;SDS011;9108;53.204;10.424;2023-02-11T15:21:46;18.00;;;7.67;;
17965;SDS011;9108;53.204;10.424;2023-02-11T15:24:21;17.87;;;8.03;;
17965;SDS011;9108;53.204;10.424;2023-02-11T15:27:00;21.15;;;7.90;;
17965;SDS011;9108;53.204;10.424;2023-02-11T15:29:32;18.73;;;7.80;;
17965;SDS011;9108;53.204;10.424;2023-02-11T15:32:04;18.05;;;8.32;;
17965;SDS011;9108;53.204;10.424;2023-02-11T15:34:31;21.08;;;8.57;;
17965;SDS011;9108;53.204;10.424;2023-02-11T15:36:59;19.83;;;8.90;;
17965;SDS011;9108;53.204;10.424;2023-02-11T15:39:30;22.25;;;9.07;;
17965;SDS011;9108;53.204;10.424;2023-02-11T15:44:48;20.13;;;8.98;;
17965;SDS011;9108;53.204;10.424;2023-02-11T15:47:17;22.13;;;9.98;;
17965;SDS011;9108;53.204;10.424;2023-02-11T15:49:45;23.40;;;11.10;;
17965;SDS011;9108;53.204;10.424;2023-02-11T15:52:12;22.73;;;9.77;;
17965;SDS011;9108;53.204;10.424;2023-02-11T15:54:41;25.15;;;10.18;;
17965;SDS011;9108;53.204;10.424;2023-02-11T15:57:11;20.65;;;9.15;;
17965;SDS011;9108;53.204;10.424;2023-02-11T15:59:39;24.33;;;9.90;;
17965;SDS011;9108;53.204;10.424;2023-02-11T16:02:15;25.97;;;9.40;;
17965;SDS011;9108;53.204;10.424;2023-02-11T16:04:47;23.20;;;9.63;;
17965;SDS011;9108;53.204;10.424;2023-02-11T16:09:57;23.08;;;9.85;;